createdAt,value
2024-01-05T00:00:12.704Z,9.34
2024-01-05T00:02:40.265Z,9.33
2024-01-05T00:05:08.597Z,9.25
2024-01-05T00:07:37.448Z,9.36
2024-01-05T00:10:05.614Z,9.42
2024-01-05T00:12:33.171Z,9.34
2024-01-05T00:15:00.857Z,9.28
2024-01-05T00:17:28.472Z,9.20
2024-01-05T00:19:56.370Z,9.34
2024-01-05T00:22:23.910Z,9.47
2024-01-05T00:24:52.839Z,9.46
2024-01-05T00:27:20.360Z,9.19
2024-01-05T00:29:47.935Z,9.11
2024-01-05T00:32:18.575Z,9.20
2024-01-05T00:34:46.722Z,9.46
2024-01-05T00:37:14.395Z,9.52
2024-01-05T00:39:42.222Z,9.30
2024-01-05T00:42:11.243Z,9.17
2024-01-05T00:44:38.787Z,9.53
2024-01-05T00:47:07.002Z,9.36
2024-01-05T00:49:34.700Z,9.55
2024-01-05T00:52:02.508Z,8.97
2024-01-05T00:54:30.268Z,9.12
2024-01-05T00:56:57.964Z,9.03
2024-01-05T00:59:27.093Z,8.97
2024-01-05T01:01:54.792Z,9.29
2024-01-05T01:04:22.658Z,8.80
2024-01-05T01:06:50.674Z,9.03
2024-01-05T01:09:18.561Z,9.13
2024-01-05T01:11:46.090Z,9.16
2024-01-05T01:14:13.582Z,9.07
2024-01-05T01:16:42.685Z,9.28
2024-01-05T01:19:10.440Z,8.61
2024-01-05T01:21:38.180Z,8.89
2024-01-05T01:24:06.095Z,8.92
2024-01-05T01:26:33.654Z,8.91
2024-01-05T01:29:01.211Z,9.10
2024-01-05T01:31:29.901Z,9.16
2024-01-05T01:33:58.984Z,8.58
2024-01-05T01:36:26.819Z,9.04
2024-01-05T01:38:54.378Z,8.96
2024-01-05T01:41:22.015Z,9.08
2024-01-05T01:43:53.101Z,8.73
2024-01-05T01:46:21.768Z,8.93
2024-01-05T01:48:49.607Z,8.79
2024-01-05T01:51:18.924Z,8.54
2024-01-05T01:53:46.986Z,8.74
2024-01-05T01:56:15.040Z,8.60
2024-01-05T01:58:44.598Z,8.77
2024-01-05T02:01:13.486Z,8.25
2024-01-05T02:03:41.627Z,8.14
2024-01-05T02:06:09.347Z,8.43
2024-01-05T02:08:39.124Z,8.70
2024-01-05T02:11:06.919Z,8.80
2024-01-05T02:13:35.652Z,8.82
2024-01-05T02:16:03.331Z,8.89
2024-01-05T02:18:30.928Z,8.71
2024-01-05T02:21:01.509Z,8.94
2024-01-05T02:23:32.035Z,8.95
2024-01-05T02:26:01.599Z,9.04
2024-01-05T02:28:29.215Z,9.12
2024-01-05T02:30:57.108Z,9.21
2024-01-05T02:33:25.490Z,9.23
2024-01-05T02:35:53.345Z,9.29
2024-01-05T02:38:20.940Z,9.09
2024-01-05T02:40:49.828Z,9.28
2024-01-05T02:43:17.451Z,9.21
2024-01-05T02:45:45.339Z,8.68
2024-01-05T02:48:13.083Z,8.87
2024-01-05T02:50:40.727Z,8.81
2024-01-05T02:53:08.438Z,8.73
2024-01-05T02:55:35.959Z,9.03
2024-01-05T02:58:05.702Z,9.21
2024-01-05T03:00:33.558Z,9.18
2024-01-05T03:03:01.368Z,9.12
2024-01-05T03:05:32.611Z,9.03
2024-01-05T03:08:00.675Z,9.34
2024-01-05T03:10:28.271Z,9.15
2024-01-05T03:12:55.942Z,8.41
2024-01-05T03:15:24.839Z,8.82
2024-01-05T03:17:53.712Z,9.07
2024-01-05T03:20:22.152Z,9.18
2024-01-05T03:22:49.683Z,9.04
2024-01-05T03:25:17.185Z,8.96
2024-01-05T03:27:44.724Z,9.07
2024-01-05T03:30:12.918Z,8.81
2024-01-05T03:32:41.897Z,8.92
2024-01-05T03:35:09.827Z,8.81
2024-01-05T03:37:37.627Z,8.95
2024-01-05T03:40:06.066Z,8.95
2024-01-05T03:42:33.677Z,8.92
2024-01-05T03:45:01.440Z,9.04
2024-01-05T03:47:32.030Z,9.03
2024-01-05T03:50:01.347Z,8.85
2024-01-05T03:52:29.251Z,8.76
2024-01-05T03:54:57.188Z,8.89
2024-01-05T03:57:24.861Z,9.14
2024-01-05T03:59:52.540Z,9.05
2024-01-05T04:02:20.133Z,9.08
2024-01-05T04:04:47.843Z,9.18
2024-01-05T04:07:17.151Z,8.33
2024-01-05T04:09:44.682Z,8.79
2024-01-05T04:12:12.512Z,7.68
2024-01-05T04:14:40.236Z,7.22
2024-01-05T04:17:07.785Z,8.24
2024-01-05T04:19:35.353Z,8.64
2024-01-05T04:22:05.224Z,7.89
2024-01-05T04:24:34.345Z,7.64
2024-01-05T04:27:02.172Z,6.92
2024-01-05T04:29:29.823Z,7.33
2024-01-05T04:31:57.332Z,7.14
2024-01-05T04:34:24.978Z,6.59
2024-01-05T04:36:52.525Z,7.43
2024-01-05T04:39:20.384Z,6.38
2024-01-05T04:41:49.638Z,7.67
2024-01-05T04:44:17.153Z,7.41
2024-01-05T04:46:44.913Z,7.29
2024-01-05T04:49:12.674Z,7.99
2024-01-05T04:51:43.182Z,7.51
2024-01-05T04:54:11.962Z,8.02
2024-01-05T04:56:39.481Z,8.65
2024-01-05T04:59:09.647Z,8.87
2024-01-05T05:01:37.574Z,8.66
2024-01-05T05:04:05.404Z,8.36
2024-01-05T05:06:33.088Z,7.98
2024-01-05T05:09:00.722Z,8.22
2024-01-05T05:11:28.226Z,8.55
2024-01-05T05:13:55.737Z,8.68
2024-01-05T05:16:24.708Z,8.98
2024-01-05T05:18:52.320Z,8.24
2024-01-05T05:21:20.278Z,8.38
2024-01-05T05:23:47.792Z,8.74
2024-01-05T05:26:15.682Z,8.78
2024-01-05T05:28:43.405Z,8.91
2024-01-05T05:31:11.476Z,8.92
2024-01-05T05:33:42.248Z,9.00
2024-01-05T05:36:10.021Z,9.15
2024-01-05T05:38:37.488Z,9.03
2024-01-05T05:41:05.387Z,9.32
2024-01-05T05:43:33.038Z,9.45
2024-01-05T05:46:00.474Z,9.34
2024-01-05T05:48:28.153Z,9.11
2024-01-05T05:50:57.058Z,9.23
2024-01-05T05:53:24.782Z,9.20
2024-01-05T05:55:52.281Z,9.29
2024-01-05T05:58:19.812Z,9.44
2024-01-05T06:00:47.442Z,9.08
2024-01-05T06:03:15.337Z,9.02
2024-01-05T06:05:43.021Z,8.98
2024-01-05T06:08:12.000Z,9.22
2024-01-05T06:10:39.848Z,9.23
2024-01-05T06:13:07.474Z,9.05
2024-01-05T06:15:35.057Z,8.95
2024-01-05T06:18:02.804Z,8.67
2024-01-05T06:20:30.422Z,8.67
2024-01-05T06:22:57.972Z,8.98
2024-01-05T06:25:26.895Z,8.97
2024-01-05T06:27:54.435Z,8.88
2024-01-05T06:30:22.055Z,9.07
2024-01-05T06:32:49.660Z,8.96
2024-01-05T06:35:17.297Z,9.12
2024-01-05T06:37:44.803Z,8.42
2024-01-05T06:40:13.288Z,8.57
2024-01-05T06:42:42.213Z,8.86
2024-01-05T06:45:10.115Z,8.92
2024-01-05T06:47:37.695Z,8.89
2024-01-05T06:50:06.113Z,8.99
2024-01-05T06:52:33.889Z,8.95
2024-01-05T06:55:01.705Z,8.98
2024-01-05T06:57:30.509Z,9.12
2024-01-05T06:59:59.832Z,9.15
2024-01-05T07:02:27.399Z,8.74
2024-01-05T07:04:55.007Z,8.93
2024-01-05T07:07:22.604Z,8.97
2024-01-05T07:09:50.248Z,8.98
2024-01-05T07:12:17.808Z,9.11
2024-01-05T07:14:45.438Z,9.14
2024-01-05T07:17:14.391Z,9.26
2024-01-05T07:19:42.656Z,8.93
2024-01-05T07:22:10.579Z,8.65
2024-01-05T07:24:39.428Z,8.81
2024-01-05T07:27:07.340Z,8.72
2024-01-05T07:29:34.990Z,9.02
2024-01-05T07:32:02.633Z,9.15
2024-01-05T07:34:31.640Z,9.23
2024-01-05T07:36:59.159Z,9.16
2024-01-05T07:39:26.748Z,8.60
2024-01-05T07:41:54.395Z,8.99
2024-01-05T07:44:21.957Z,9.00
2024-01-05T07:46:49.496Z,7.84
2024-01-05T07:49:17.235Z,8.44
2024-01-05T07:51:46.369Z,8.55
2024-01-05T07:54:14.245Z,8.58
2024-01-05T07:56:41.788Z,7.40
2024-01-05T07:59:09.327Z,7.29
2024-01-05T08:01:37.107Z,7.62
2024-01-05T08:04:04.847Z,6.49
2024-01-05T08:06:32.755Z,6.54
2024-01-05T08:09:01.873Z,6.28
2024-01-05T08:11:29.426Z,6.11
2024-01-05T08:13:56.905Z,5.84
2024-01-05T08:16:26.574Z,5.63
2024-01-05T08:18:54.231Z,5.42
2024-01-05T08:21:21.832Z,5.86
2024-01-05T08:23:49.342Z,5.50
2024-01-05T08:26:20.212Z,5.19
2024-01-05T08:28:48.668Z,5.39
2024-01-05T08:31:16.373Z,6.15
2024-01-05T08:33:44.632Z,5.17
2024-01-05T08:36:12.869Z,4.72
2024-01-05T08:38:40.534Z,5.20
2024-01-05T08:41:08.148Z,5.32
2024-01-05T08:43:39.053Z,4.95
2024-01-05T08:46:06.756Z,5.19
2024-01-05T08:48:34.457Z,5.84
2024-01-05T08:51:02.085Z,6.06
2024-01-05T08:53:29.617Z,5.99
2024-01-05T08:55:57.156Z,5.23
2024-01-05T08:58:24.818Z,4.80
2024-01-05T09:00:53.815Z,5.14
2024-01-05T09:03:21.590Z,5.09
2024-01-05T09:05:49.197Z,5.64
2024-01-05T09:08:16.677Z,5.27
2024-01-05T09:10:44.339Z,5.54
2024-01-05T09:13:12.041Z,5.49
2024-01-05T09:15:39.649Z,5.33
2024-01-05T09:18:09.615Z,5.68
2024-01-05T09:20:38.683Z,5.89
2024-01-05T09:23:07.526Z,5.45
2024-01-05T09:25:38.634Z,5.39
2024-01-05T09:28:08.140Z,5.54
2024-01-05T09:30:35.837Z,6.10
2024-01-05T09:33:05.037Z,7.10
2024-01-05T09:35:34.136Z,6.44
2024-01-05T09:38:01.708Z,6.86
2024-01-05T09:40:29.412Z,7.21
2024-01-05T09:42:58.802Z,6.90
2024-01-05T09:45:26.717Z,6.68
2024-01-05T09:47:58.479Z,6.04
2024-01-05T09:50:26.392Z,5.67
2024-01-05T09:52:55.520Z,5.64
2024-01-05T09:55:23.089Z,5.43
2024-01-05T09:57:52.624Z,6.26
2024-01-05T10:00:21.322Z,5.76
2024-01-05T10:02:57.607Z,5.62
2024-01-05T10:05:34.313Z,6.26
2024-01-05T10:08:05.391Z,6.13
2024-01-05T10:10:46.348Z,6.96
2024-01-05T10:13:14.963Z,6.56
2024-01-05T10:15:54.272Z,6.33
2024-01-05T10:18:25.432Z,6.18
2024-01-05T10:20:53.880Z,6.13
2024-01-05T10:23:23.188Z,6.70
2024-01-05T10:25:52.577Z,7.04
2024-01-05T10:28:26.356Z,8.07
2024-01-05T10:30:54.664Z,8.48
2024-01-05T10:33:23.132Z,9.17
2024-01-05T10:35:50.737Z,7.38
2024-01-05T10:38:18.782Z,8.06
2024-01-05T10:40:47.801Z,7.71
2024-01-05T10:43:17.339Z,8.51
2024-01-05T10:45:48.954Z,8.44
2024-01-05T10:48:18.260Z,7.51
2024-01-05T10:50:46.416Z,7.14
2024-01-05T10:53:14.309Z,6.81
2024-01-05T10:55:43.365Z,6.11
2024-01-05T10:58:13.130Z,6.66
2024-01-05T11:00:41.079Z,6.50
2024-01-05T11:03:12.401Z,6.36
2024-01-05T11:05:43.371Z,6.25
2024-01-05T11:08:25.785Z,7.47
2024-01-05T11:11:08.717Z,6.21
2024-01-05T11:13:53.908Z,5.56
2024-01-05T11:16:55.590Z,4.87
2024-01-05T11:19:46.548Z,5.35
2024-01-05T11:22:18.836Z,5.86
2024-01-05T11:24:46.782Z,5.36
2024-01-05T11:27:34.168Z,4.89
2024-01-05T11:30:04.100Z,5.03
2024-01-05T11:32:43.550Z,5.13
2024-01-05T11:35:43.620Z,5.78
2024-01-05T11:38:26.445Z,5.56
2024-01-05T11:40:54.124Z,5.94
2024-01-05T11:43:36.532Z,5.13
2024-01-05T11:46:06.042Z,4.79
2024-01-05T11:48:52.308Z,5.58
2024-01-05T11:51:20.756Z,5.62
2024-01-05T11:53:51.543Z,5.60
2024-01-05T11:56:22.518Z,5.85
2024-01-05T11:58:50.344Z,6.13
2024-01-05T12:01:20.826Z,5.95
2024-01-05T12:03:48.649Z,5.28
2024-01-05T12:06:16.338Z,5.36
2024-01-05T12:08:44.050Z,5.15
2024-01-05T12:11:13.497Z,5.18
2024-01-05T12:13:41.432Z,4.82
2024-01-05T12:16:11.100Z,5.24
2024-01-05T12:18:49.630Z,5.47
2024-01-05T12:21:20.912Z,5.03
2024-01-05T12:23:54.386Z,5.16
2024-01-05T12:26:22.195Z,5.24
2024-01-05T12:28:50.514Z,4.77
2024-01-05T12:31:19.480Z,4.96
2024-01-05T12:33:49.137Z,5.35
2024-01-05T12:36:25.574Z,4.91
2024-01-05T12:38:53.655Z,4.93
2024-01-05T12:41:22.459Z,5.47
2024-01-05T12:43:52.573Z,5.07
2024-01-05T12:46:20.932Z,4.99
2024-01-05T12:48:50.074Z,5.55
2024-01-05T12:51:21.675Z,5.73
2024-01-05T12:53:59.228Z,5.49
2024-01-05T12:56:26.894Z,5.35
2024-01-05T12:58:54.954Z,5.72
2024-01-05T13:01:24.204Z,6.53
2024-01-05T13:03:55.322Z,6.27
2024-01-05T13:06:24.788Z,5.61
2024-01-05T13:08:52.687Z,5.52
2024-01-05T13:11:21.943Z,5.55
2024-01-05T13:13:53.941Z,5.46
2024-01-05T13:16:22.161Z,5.41
2024-01-05T13:18:50.128Z,5.80
2024-01-05T13:21:19.167Z,5.85
2024-01-05T13:23:48.001Z,5.58
2024-01-05T13:26:15.711Z,6.25
2024-01-05T13:28:44.880Z,5.67
2024-01-05T13:31:12.497Z,5.70
2024-01-05T13:33:41.601Z,5.93
2024-01-05T13:36:09.796Z,6.58
2024-01-05T13:38:38.695Z,6.84
2024-01-05T13:41:07.151Z,6.87
2024-01-05T13:43:35.767Z,5.70
2024-01-05T13:46:05.326Z,6.13
2024-01-05T13:48:33.039Z,6.35
2024-01-05T13:51:00.664Z,5.88
2024-01-05T13:53:28.655Z,5.86
2024-01-05T13:55:58.437Z,5.45
2024-01-05T13:58:26.343Z,6.20
2024-01-05T14:00:54.674Z,6.51
2024-01-05T14:03:25.057Z,6.28
2024-01-05T14:05:52.742Z,6.33
2024-01-05T14:08:23.305Z,5.55
2024-01-05T14:10:51.570Z,6.31
2024-01-05T14:13:20.396Z,5.65
2024-01-05T14:15:48.025Z,6.12
2024-01-05T14:18:15.723Z,5.43
2024-01-05T14:20:43.372Z,5.20
2024-01-05T14:23:10.817Z,5.64
2024-01-05T14:25:38.796Z,5.49
2024-01-05T14:28:06.883Z,5.41
2024-01-05T14:30:35.796Z,5.24
2024-01-05T14:33:03.580Z,5.95
2024-01-05T14:35:31.172Z,5.60
2024-01-05T14:37:57.762Z,6.17
2024-01-05T14:40:25.343Z,6.00
2024-01-05T14:42:52.809Z,5.56
2024-01-05T14:45:20.545Z,5.91
2024-01-05T14:47:49.488Z,5.58
2024-01-05T14:50:17.516Z,5.89
2024-01-05T14:52:52.409Z,5.65
2024-01-05T14:55:27.268Z,5.50
2024-01-05T14:57:54.820Z,5.07
2024-01-05T15:00:22.701Z,5.82
2024-01-05T15:02:51.983Z,5.68
2024-01-05T15:05:19.495Z,5.71
2024-01-05T15:07:47.162Z,5.28
2024-01-05T15:10:14.959Z,5.31
2024-01-05T15:12:42.567Z,5.25
2024-01-05T15:15:10.790Z,5.38
2024-01-05T15:17:39.451Z,5.26
2024-01-05T15:20:11.135Z,4.86
2024-01-05T15:22:38.772Z,5.01
2024-01-05T15:25:06.923Z,5.29
2024-01-05T15:27:35.023Z,5.40
2024-01-05T15:30:02.660Z,5.32
2024-01-05T15:32:30.573Z,5.50
2024-01-05T15:34:58.285Z,5.59
2024-01-05T15:37:27.433Z,5.29
2024-01-05T15:39:55.338Z,5.20
2024-01-05T15:42:23.237Z,5.33
2024-01-05T15:44:50.858Z,5.13
2024-01-05T15:47:20.477Z,5.60
2024-01-05T15:49:48.741Z,5.10
2024-01-05T15:52:16.304Z,5.30
2024-01-05T15:54:45.208Z,5.23
2024-01-05T15:57:16.553Z,5.74
2024-01-05T15:59:44.159Z,5.81
2024-01-05T16:02:11.711Z,5.32
2024-01-05T16:04:39.259Z,5.52
2024-01-05T16:07:06.954Z,4.65
2024-01-05T16:09:34.550Z,4.74
2024-01-05T16:12:05.434Z,5.01
2024-01-05T16:14:32.950Z,4.62
2024-01-05T16:17:00.522Z,5.15
2024-01-05T16:19:28.131Z,4.48
2024-01-05T16:21:56.128Z,4.45
2024-01-05T16:24:23.699Z,4.56
2024-01-05T16:26:51.926Z,4.70
2024-01-05T16:29:20.780Z,4.79
2024-01-05T16:31:48.281Z,4.65
2024-01-05T16:34:15.981Z,4.67
2024-01-05T16:36:43.670Z,4.27
2024-01-05T16:39:12.405Z,4.79
2024-01-05T16:41:40.606Z,4.20
2024-01-05T16:44:08.388Z,4.85
2024-01-05T16:46:37.226Z,4.98
2024-01-05T16:49:05.180Z,5.67
2024-01-05T16:51:32.908Z,5.45
2024-01-05T16:54:00.490Z,5.08
2024-01-05T16:56:29.964Z,5.57
2024-01-05T16:58:58.209Z,4.82
2024-01-05T17:01:25.848Z,5.18
2024-01-05T17:03:56.021Z,4.76
2024-01-05T17:06:23.871Z,4.87
2024-01-05T17:08:51.571Z,4.73
2024-01-05T17:11:19.075Z,3.53
2024-01-05T17:13:46.616Z,3.84
2024-01-05T17:16:14.168Z,3.62
2024-01-05T17:18:42.113Z,3.38
2024-01-05T17:21:11.113Z,4.36
2024-01-05T17:23:38.838Z,4.66
2024-01-05T17:26:06.489Z,4.12
2024-01-05T17:28:34.018Z,4.30
2024-01-05T17:31:01.597Z,4.31
2024-01-05T17:33:29.253Z,4.42
2024-01-05T17:35:57.901Z,4.84
2024-01-05T17:38:26.872Z,4.82
2024-01-05T17:40:54.362Z,4.89
2024-01-05T17:43:22.378Z,5.04
2024-01-05T17:45:50.036Z,4.39
2024-01-05T17:48:17.859Z,4.58
2024-01-05T17:50:47.930Z,4.93
2024-01-05T17:53:15.533Z,4.50
2024-01-05T17:55:44.468Z,4.28
2024-01-05T17:58:12.091Z,4.10
2024-01-05T18:00:39.672Z,4.59
2024-01-05T18:03:07.530Z,4.85
2024-01-05T18:05:35.192Z,4.02
2024-01-05T18:08:02.755Z,4.38
2024-01-05T18:10:32.697Z,5.30
2024-01-05T18:13:01.540Z,4.82
2024-01-05T18:15:29.147Z,4.62
2024-01-05T18:17:57.436Z,4.90
2024-01-05T18:20:24.983Z,5.04
2024-01-05T18:22:52.494Z,4.86
2024-01-05T18:25:20.022Z,4.20
2024-01-05T18:27:48.907Z,4.58
2024-01-05T18:30:18.474Z,5.16
2024-01-05T18:32:46.205Z,5.02
2024-01-05T18:35:14.194Z,4.81
2024-01-05T18:37:42.299Z,4.20
2024-01-05T18:40:10.114Z,4.76
2024-01-05T18:42:37.664Z,4.71
2024-01-05T18:45:06.109Z,4.59
2024-01-05T18:47:35.038Z,4.87
2024-01-05T18:50:04.123Z,3.78
2024-01-05T18:52:31.688Z,4.01
2024-01-05T18:54:59.343Z,4.35
2024-01-05T18:57:28.318Z,4.21
2024-01-05T18:59:55.841Z,4.57
2024-01-05T19:02:23.370Z,3.94
2024-01-05T19:04:52.417Z,3.94
2024-01-05T19:07:20.485Z,4.41
2024-01-05T19:09:48.215Z,3.82
2024-01-05T19:12:15.924Z,3.79
2024-01-05T19:14:43.717Z,3.98
2024-01-05T19:17:11.487Z,4.00
2024-01-05T19:19:40.388Z,3.80
2024-01-05T19:22:09.552Z,3.70
2024-01-05T19:24:37.322Z,3.82
2024-01-05T19:27:05.284Z,3.83
2024-01-05T19:29:32.963Z,3.46
2024-01-05T19:32:00.633Z,3.43
2024-01-05T19:34:28.454Z,3.29
2024-01-05T19:36:56.108Z,3.15
2024-01-05T19:39:25.982Z,3.26
2024-01-05T19:41:54.160Z,3.32
2024-01-05T19:44:21.698Z,3.52
2024-01-05T19:46:50.298Z,2.96
2024-01-05T19:49:18.155Z,3.34
2024-01-05T19:51:47.942Z,3.16
2024-01-05T19:54:20.188Z,2.88
2024-01-05T19:56:50.033Z,3.12
2024-01-05T19:59:20.208Z,3.51
2024-01-05T20:01:48.185Z,3.61
2024-01-05T20:04:17.013Z,3.70
2024-01-05T20:06:46.191Z,3.96
2024-01-05T20:09:14.594Z,3.83
2024-01-05T20:11:42.563Z,4.43
2024-01-05T20:14:12.369Z,3.96
2024-01-05T20:16:40.359Z,4.30
2024-01-05T20:19:08.358Z,4.18
2024-01-05T20:21:36.661Z,4.25
2024-01-05T20:24:05.969Z,4.04
2024-01-05T20:26:33.727Z,4.09
2024-01-05T20:29:01.320Z,3.93
2024-01-05T20:31:31.377Z,4.55
2024-01-05T20:34:02.552Z,4.17
2024-01-05T20:36:30.406Z,4.37
2024-01-05T20:39:00.000Z,4.99
2024-01-05T20:41:28.551Z,4.65
2024-01-05T20:43:56.211Z,4.66
2024-01-05T20:46:23.824Z,4.69
2024-01-05T20:48:52.803Z,4.85
2024-01-05T20:51:21.107Z,5.06
2024-01-05T20:53:48.649Z,5.22
2024-01-05T20:56:16.203Z,5.77
2024-01-05T20:58:46.231Z,5.68
2024-01-05T21:01:14.609Z,5.50
2024-01-05T21:03:42.462Z,4.59
2024-01-05T21:06:11.399Z,4.60
2024-01-05T21:08:39.023Z,4.68
2024-01-05T21:11:07.685Z,4.37
2024-01-05T21:13:35.268Z,4.27
2024-01-05T21:16:06.974Z,4.59
2024-01-05T21:18:35.577Z,4.55
2024-01-05T21:21:05.559Z,4.02
2024-01-05T21:23:34.804Z,4.24
2024-01-05T21:26:05.216Z,4.39
2024-01-05T21:28:33.329Z,4.57
2024-01-05T21:31:05.837Z,5.09
2024-01-05T21:33:34.782Z,4.88
2024-01-05T21:36:03.705Z,4.18
2024-01-05T21:38:31.524Z,4.77
2024-01-05T21:41:00.467Z,4.72
2024-01-05T21:43:28.042Z,4.26
2024-01-05T21:45:57.234Z,3.82
2024-01-05T21:48:25.299Z,4.20
2024-01-05T21:50:52.947Z,4.40
2024-01-05T21:53:23.256Z,3.88
2024-01-05T21:55:51.487Z,3.83
2024-01-05T21:58:20.375Z,4.25
2024-01-05T22:00:48.280Z,4.42
2024-01-05T22:03:18.934Z,4.41
2024-01-05T22:05:46.679Z,4.24
2024-01-05T22:08:16.090Z,3.85
2024-01-05T22:10:47.528Z,4.15
2024-01-05T22:13:15.436Z,4.15
2024-01-05T22:15:44.329Z,4.20
2024-01-05T22:18:12.072Z,4.21
2024-01-05T22:20:41.222Z,4.66
2024-01-05T22:23:08.818Z,4.33
2024-01-05T22:25:37.201Z,4.34
2024-01-05T22:28:05.203Z,3.90
2024-01-05T22:30:33.010Z,4.04
2024-01-05T22:33:02.223Z,4.59
2024-01-05T22:35:29.786Z,4.30
2024-01-05T22:37:57.329Z,4.45
2024-01-05T22:40:26.575Z,3.49
2024-01-05T22:42:54.134Z,3.89
2024-01-05T22:45:21.787Z,3.63
2024-01-05T22:47:51.431Z,3.82
2024-01-05T22:50:20.461Z,3.91
2024-01-05T22:52:47.978Z,3.83
2024-01-05T22:55:15.549Z,3.99
2024-01-05T22:57:43.247Z,3.99
2024-01-05T23:00:11.631Z,3.75
2024-01-05T23:02:39.538Z,3.92
2024-01-05T23:05:07.343Z,3.86
2024-01-05T23:07:36.395Z,4.43
2024-01-05T23:10:04.085Z,4.80
2024-01-05T23:12:33.361Z,5.03
2024-01-05T23:15:01.385Z,5.20
2024-01-05T23:17:28.893Z,4.73
2024-01-05T23:19:57.756Z,4.82
2024-01-05T23:22:29.562Z,4.66
2024-01-05T23:24:58.479Z,4.12
2024-01-05T23:27:26.231Z,4.13
2024-01-05T23:29:53.768Z,3.68
2024-01-05T23:32:21.357Z,3.72
2024-01-05T23:34:49.029Z,3.68
2024-01-05T23:37:16.951Z,3.98
2024-01-05T23:39:44.528Z,3.93
2024-01-05T23:42:13.651Z,4.13
2024-01-05T23:44:41.232Z,3.67
2024-01-05T23:47:08.961Z,3.85
2024-01-05T23:49:36.806Z,3.94
2024-01-05T23:52:04.854Z,4.24
2024-01-05T23:54:32.522Z,4.71
2024-01-05T23:57:00.015Z,4.59
2024-01-05T23:59:28.831Z,4.42
